Flight Track Log - Related Links

Times and Time Zones

All times are in EDT time to prevent confusion due to time zone crossing. See the FDX1608 flight status page for this flight to view local times or setup timezone preferences in your user account.

Time Position Orientation Groundspeed Altitude Reporting Facility
EDT Latitude Longitude Course Direction KTS MPH feet Rate Location/Type
Tue 12:16:30 AM 38.7167 -90.3000 108° East 168 193 2,300  Level Gateway (St. Louis) TRACON
Tue 12:17:30 AM 38.7000 -90.2333 108° East 243 280 4,200 2,390 Climbing Gateway (St. Louis) TRACON
Tue 12:18:33 AM 38.6897 -90.1364 98° East 252 290 7,200 2,758 Climbing Kansas City Center
Tue 12:19:34 AM 38.7053 -90.0378 79° East 278 320 9,900 1,968 Climbing Kansas City Center
Tue 12:20:38 AM 38.7242 -89.9247 78° East 327 376 11,300 1,770 Climbing Kansas City Center
Tue 12:21:36 AM 38.7453 -89.7992 78° East 355 409 13,500 2,083 Climbing Kansas City Center
Tue 12:22:39 AM 38.7675 -89.6642 78° East 378 435 15,500 1,902 Climbing Kansas City Center
Tue 12:23:39 AM 38.7903 -89.5258 78° East 396 456 17,400 1,900 Climbing Kansas City Center
Tue 12:24:39 AM 38.8108 -89.3783 80° East 417 480 19,300 1,736 Climbing Kansas City Center
Tue 12:25:40 AM 38.8289 -89.2250 81° East 432 497 20,900 1,475 Climbing Kansas City Center
Tue 12:26:41 AM 38.8492 -89.0664 81° East 447 514 22,300 1,033 Climbing Kansas City Center
Tue 12:27:42 AM 38.8711 -88.9039 80° East 461 531 23,000 339 Climbing Kansas City Center
Tue 12:28:45 AM 38.8914 -88.7403 81° East 464 534 23,000  Level Kansas City Center
Tue 12:29:46 AM 38.9250 -88.5675 76° East 454 522 23,000  Level Kansas City Center
Tue 12:30:46 AM 38.9669 -88.4119 71° East 454 522 23,000  Level Kansas City Center
Tue 12:31:46 AM 39.0083 -88.2569 71° East 455 524 23,000  Level Kansas City Center
Tue 12:32:46 AM 39.0486 -88.1014 72° East 455 524 23,000  Level Kansas City Center
Tue 12:33:49 AM 39.0914 -87.9439 71° East 457 526 23,000 -381 Level Kansas City Center
Tue 12:34:52 AM 39.1356 -87.7658 72° East 444 511 22,200 -1,355 Descending Indianapolis Center
Tue 12:35:53 AM 39.1733 -87.6211 71° East 430 495 20,200 -1,934 Descending Indianapolis Center
Tue 12:36:53 AM 39.2083 -87.4856 72° East 406 467 18,300 -1,835 Descending Indianapolis Center
Tue 12:37:54 AM 39.2375 -87.3622 73° East 391 450 16,500 -1,721 Descending Indianapolis Center
Tue 12:38:55 AM 39.2711 -87.2378 71° East 375 432 14,800 -1,721 Descending Indianapolis Center
Tue 12:39:56 AM 39.3033 -87.1144 71° East 368 423 13,000 -1,574 Descending Indianapolis Center
Tue 12:40:57 AM 39.3369 -86.9942 70° East 362 417 11,600 -992 Descending Indianapolis Center
Tue 12:41:57 AM 39.3894 -86.8906 57° Northeast 354 407 11,000 -1,140 Descending Indianapolis Center
Tue 12:42:58 AM 39.4331 -86.8025 57° Northeast 305 351 9,300 -1,672 Descending Indianapolis Center
Tue 12:43:59 AM 39.4722 -86.7169 59° Northeast 282 325 7,600 -1,672 Descending Indianapolis Center
Tue 12:45:00 AM 39.5106 -86.6356 59° Northeast 273 314 5,900 -1,377 Descending Indianapolis Center
Tue 12:46:01 AM 39.5486 -86.5553 58° Northeast 268 308 4,800 -942 Descending Indianapolis Center
Tue 12:47:01 AM 39.5875 -86.4736 58° Northeast 231 266 4,000 -744 Descending Indianapolis Center
Tue 12:48:02 AM 39.6142 -86.4147 60° Northeast 205 236 3,300 -843 Descending Indianapolis Center
Tue 12:49:02 AM 39.6500 -86.3686 45° Northeast 190 219 2,300 -893 Descending Indianapolis Center
Tue 12:50:03 AM 39.6792 -86.3314 44° Northeast 168 193 1,500 -738 Descending Indianapolis Center
Tue 12:51:04 AM 39.7114 -86.2906 44° Northeast 158 182 800 -689 Descending Indianapolis Center

Login

Don't have an account? Register now (free) for customized features, flight alerts, and more!